sensor_id;sensor_type;location;lat;lon;timestamp;pressure;altitude;pressure_sealevel;temperature;humidity
36664;BME280;53333;51.976;20.144;2023-03-15T00:02:13;98632.97;;;7.50;63.60
36664;BME280;53333;51.976;20.144;2023-03-15T00:04:46;98652.09;;;7.26;63.70
36664;BME280;53333;51.976;20.144;2023-03-15T00:07:21;98660.09;;;7.11;63.71
36664;BME280;53333;51.976;20.144;2023-03-15T00:09:56;98670.56;;;6.98;63.79
36664;BME280;53333;51.976;20.144;2023-03-15T00:12:29;98682.72;;;6.86;64.16
36664;BME280;53333;51.976;20.144;2023-03-15T00:15:03;98699.97;;;6.79;64.15
36664;BME280;53333;51.976;20.144;2023-03-15T00:17:36;98719.03;;;6.69;64.17
36664;BME280;53333;51.976;20.144;2023-03-15T00:20:10;98725.66;;;6.62;64.26
36664;BME280;53333;51.976;20.144;2023-03-15T00:22:46;98723.41;;;6.54;64.36
36664;BME280;53333;51.976;20.144;2023-03-15T00:25:19;98743.16;;;6.49;64.32
36664;BME280;53333;51.976;20.144;2023-03-15T00:27:52;98761.13;;;6.44;64.37
36664;BME280;53333;51.976;20.144;2023-03-15T00:30:25;98762.28;;;6.38;64.45
36664;BME280;53333;51.976;20.144;2023-03-15T00:32:58;98761.78;;;6.31;64.63
36664;BME280;53333;51.976;20.144;2023-03-15T00:35:32;98762.00;;;6.27;64.49
36664;BME280;53333;51.976;20.144;2023-03-15T00:38:08;98768.44;;;6.23;64.64
36664;BME280;53333;51.976;20.144;2023-03-15T00:40:42;98781.94;;;6.18;64.70
36664;BME280;53333;51.976;20.144;2023-03-15T00:43:15;98787.41;;;6.15;64.73
36664;BME280;53333;51.976;20.144;2023-03-15T00:45:48;98803.47;;;6.12;64.56
36664;BME280;53333;51.976;20.144;2023-03-15T00:48:21;98810.81;;;6.07;64.78
36664;BME280;53333;51.976;20.144;2023-03-15T00:51:01;98809.22;;;6.03;64.69
36664;BME280;53333;51.976;20.144;2023-03-15T00:53:38;98828.16;;;5.95;64.63
36664;BME280;53333;51.976;20.144;2023-03-15T00:56:13;98838.97;;;5.90;64.73
36664;BME280;53333;51.976;20.144;2023-03-15T00:58:46;98864.78;;;5.87;64.65
36664;BME280;53333;51.976;20.144;2023-03-15T01:01:23;98873.84;;;5.82;64.70
36664;BME280;53333;51.976;20.144;2023-03-15T01:03:56;98875.69;;;5.80;64.58
36664;BME280;53333;51.976;20.144;2023-03-15T01:06:29;98874.91;;;5.78;64.57
36664;BME280;53333;51.976;20.144;2023-03-15T01:09:04;98876.16;;;5.89;64.37
36664;BME280;53333;51.976;20.144;2023-03-15T01:11:37;98882.72;;;5.81;64.39
36664;BME280;53333;51.976;20.144;2023-03-15T01:14:10;98893.38;;;5.80;64.22
36664;BME280;53333;51.976;20.144;2023-03-15T01:16:44;98912.09;;;5.77;64.19
36664;BME280;53333;51.976;20.144;2023-03-15T01:19:17;98913.97;;;5.75;64.30
36664;BME280;53333;51.976;20.144;2023-03-15T01:21:50;98934.22;;;5.76;64.03
36664;BME280;53333;51.976;20.144;2023-03-15T01:24:25;98941.31;;;5.75;64.11
36664;BME280;53333;51.976;20.144;2023-03-15T01:26:58;98958.13;;;5.74;63.98
36664;BME280;53333;51.976;20.144;2023-03-15T01:29:31;98961.72;;;5.73;63.88
36664;BME280;53333;51.976;20.144;2023-03-15T01:32:05;98973.81;;;5.79;63.82
36664;BME280;53333;51.976;20.144;2023-03-15T01:34:38;98969.19;;;5.65;63.89
36664;BME280;53333;51.976;20.144;2023-03-15T01:37:11;98979.06;;;5.61;63.76
36664;BME280;53333;51.976;20.144;2023-03-15T01:39:49;98988.88;;;5.59;63.92
36664;BME280;53333;51.976;20.144;2023-03-15T01:42:22;98995.09;;;5.58;63.83
36664;BME280;53333;51.976;20.144;2023-03-15T01:44:56;98987.25;;;5.57;63.53
36664;BME280;53333;51.976;20.144;2023-03-15T01:47:30;98986.38;;;5.56;63.59
36664;BME280;53333;51.976;20.144;2023-03-15T01:50:07;98994.31;;;5.56;63.55
36664;BME280;53333;51.976;20.144;2023-03-15T01:52:42;99001.41;;;5.56;63.51
36664;BME280;53333;51.976;20.144;2023-03-15T01:55:25;99008.72;;;5.51;63.43
36664;BME280;53333;51.976;20.144;2023-03-15T01:58:06;99009.63;;;5.50;63.63
36664;BME280;53333;51.976;20.144;2023-03-15T02:00:44;99026.31;;;5.52;63.61
36664;BME280;53333;51.976;20.144;2023-03-15T02:03:22;99032.63;;;5.49;63.44
36664;BME280;53333;51.976;20.144;2023-03-15T02:06:00;99038.91;;;5.46;63.49
36664;BME280;53333;51.976;20.144;2023-03-15T02:08:54;99037.25;;;5.44;63.45
36664;BME280;53333;51.976;20.144;2023-03-15T02:11:32;99043.63;;;5.40;63.45
36664;BME280;53333;51.976;20.144;2023-03-15T02:14:09;99048.22;;;5.36;63.55
36664;BME280;53333;51.976;20.144;2023-03-15T02:16:45;99056.16;;;5.36;63.83
36664;BME280;53333;51.976;20.144;2023-03-15T02:19:29;99077.41;;;5.35;63.64
36664;BME280;53333;51.976;20.144;2023-03-15T02:22:14;99085.28;;;5.36;63.76
36664;BME280;53333;51.976;20.144;2023-03-15T02:24:57;99091.44;;;5.37;63.72
36664;BME280;53333;51.976;20.144;2023-03-15T02:27:36;99114.50;;;5.35;63.81
36664;BME280;53333;51.976;20.144;2023-03-15T02:30:10;99118.19;;;5.31;63.82
36664;BME280;53333;51.976;20.144;2023-03-15T02:32:45;99114.69;;;5.30;63.86
36664;BME280;53333;51.976;20.144;2023-03-15T02:35:23;99121.69;;;5.31;63.93
36664;BME280;53333;51.976;20.144;2023-03-15T02:37:56;99135.81;;;5.32;63.76
36664;BME280;53333;51.976;20.144;2023-03-15T02:40:40;99150.03;;;5.29;63.78
36664;BME280;53333;51.976;20.144;2023-03-15T02:43:16;99160.88;;;5.23;63.84
36664;BME280;53333;51.976;20.144;2023-03-15T02:45:51;99174.44;;;5.15;63.86
36664;BME280;53333;51.976;20.144;2023-03-15T02:48:24;99184.38;;;5.10;63.92
36664;BME280;53333;51.976;20.144;2023-03-15T02:50:58;99177.63;;;5.03;63.95
36664;BME280;53333;51.976;20.144;2023-03-15T02:53:33;99186.53;;;5.00;63.90
36664;BME280;53333;51.976;20.144;2023-03-15T02:56:06;99184.00;;;4.97;64.04
36664;BME280;53333;51.976;20.144;2023-03-15T02:58:41;99186.59;;;4.99;63.93
36664;BME280;53333;51.976;20.144;2023-03-15T03:01:17;99196.34;;;4.98;63.78
36664;BME280;53333;51.976;20.144;2023-03-15T03:03:50;99201.69;;;4.97;63.78
36664;BME280;53333;51.976;20.144;2023-03-15T03:06:23;99203.53;;;4.95;63.49
36664;BME280;53333;51.976;20.144;2023-03-15T03:08:57;99210.66;;;4.93;63.67
36664;BME280;53333;51.976;20.144;2023-03-15T03:11:30;99202.00;;;4.89;63.70
36664;BME280;53333;51.976;20.144;2023-03-15T03:14:04;99202.00;;;4.89;63.70
36664;BME280;53333;51.976;20.144;2023-03-15T03:16:37;99218.84;;;4.86;63.54
36664;BME280;53333;51.976;20.144;2023-03-15T03:19:10;99206.69;;;4.82;63.45
36664;BME280;53333;51.976;20.144;2023-03-15T03:21:46;99225.25;;;4.81;63.44
36664;BME280;53333;51.976;20.144;2023-03-15T03:24:19;99228.03;;;4.78;63.37
36664;BME280;53333;51.976;20.144;2023-03-15T03:26:52;99232.25;;;4.82;63.15
36664;BME280;53333;51.976;20.144;2023-03-15T03:29:32;99226.84;;;4.85;63.18
36664;BME280;53333;51.976;20.144;2023-03-15T03:32:07;99225.88;;;4.87;63.02
36664;BME280;53333;51.976;20.144;2023-03-15T03:34:40;99223.03;;;4.92;62.81
36664;BME280;53333;51.976;20.144;2023-03-15T03:37:20;99221.25;;;4.93;62.80
36664;BME280;53333;51.976;20.144;2023-03-15T03:40:01;99233.50;;;4.95;62.85
36664;BME280;53333;51.976;20.144;2023-03-15T03:42:37;99237.00;;;4.96;62.62
36664;BME280;53333;51.976;20.144;2023-03-15T03:45:12;99245.81;;;4.96;62.56
36664;BME280;53333;51.976;20.144;2023-03-15T03:47:48;99252.16;;;4.92;62.67
36664;BME280;53333;51.976;20.144;2023-03-15T03:50:22;99260.72;;;4.99;62.43
36664;BME280;53333;51.976;20.144;2023-03-15T03:52:55;99257.63;;;4.87;62.45
36664;BME280;53333;51.976;20.144;2023-03-15T03:55:33;99258.59;;;4.85;62.12
36664;BME280;53333;51.976;20.144;2023-03-15T03:58:06;99263.91;;;4.85;62.31
36664;BME280;53333;51.976;20.144;2023-03-15T04:01:13;99270.97;;;4.84;62.13
36664;BME280;53333;51.976;20.144;2023-03-15T04:03:46;99279.03;;;4.81;61.98
36664;BME280;53333;51.976;20.144;2023-03-15T04:06:23;99290.53;;;4.80;62.06
36664;BME280;53333;51.976;20.144;2023-03-15T04:08:56;99290.47;;;4.82;61.88
36664;BME280;53333;51.976;20.144;2023-03-15T04:11:36;99298.34;;;4.83;61.92
36664;BME280;53333;51.976;20.144;2023-03-15T04:14:12;99295.66;;;4.85;61.73
36664;BME280;53333;51.976;20.144;2023-03-15T04:16:48;99314.22;;;4.83;61.85
36664;BME280;53333;51.976;20.144;2023-03-15T04:19:23;99317.94;;;4.79;61.73
36664;BME280;53333;51.976;20.144;2023-03-15T04:21:56;99325.03;;;4.79;61.80
36664;BME280;53333;51.976;20.144;2023-03-15T04:24:42;99327.66;;;4.79;61.75
36664;BME280;53333;51.976;20.144;2023-03-15T04:27:30;99331.34;;;4.75;61.72
36664;BME280;53333;51.976;20.144;2023-03-15T04:30:04;99342.94;;;4.70;61.69
36664;BME280;53333;51.976;20.144;2023-03-15T04:32:55;99344.78;;;4.68;61.74
36664;BME280;53333;51.976;20.144;2023-03-15T04:35:48;99353.59;;;4.69;61.81
36664;BME280;53333;51.976;20.144;2023-03-15T04:38:33;99351.81;;;4.69;61.56
36664;BME280;53333;51.976;20.144;2023-03-15T04:41:06;99359.88;;;4.66;61.67
36664;BME280;53333;51.976;20.144;2023-03-15T04:44:06;99363.44;;;4.65;61.51
36664;BME280;53333;51.976;20.144;2023-03-15T04:46:48;99360.84;;;4.64;61.54
36664;BME280;53333;51.976;20.144;2023-03-15T04:49:47;99368.03;;;4.60;61.52
36664;BME280;53333;51.976;20.144;2023-03-15T04:52:40;99369.34;;;4.72;61.40
36664;BME280;53333;51.976;20.144;2023-03-15T04:55:29;99375.97;;;4.60;61.44
36664;BME280;53333;51.976;20.144;2023-03-15T04:58:23;99371.69;;;4.56;61.56
36664;BME280;53333;51.976;20.144;2023-03-15T05:01:26;99361.22;;;4.53;61.91
36664;BME280;53333;51.976;20.144;2023-03-15T05:04:18;99370.91;;;4.54;61.90
36664;BME280;53333;51.976;20.144;2023-03-15T05:07:25;99381.59;;;4.51;61.98
36664;BME280;53333;51.976;20.144;2023-03-15T05:10:17;99393.38;;;4.42;61.73
36664;BME280;53333;51.976;20.144;2023-03-15T05:13:08;99395.28;;;4.37;62.34
36664;BME280;53333;51.976;20.144;2023-03-15T05:15:56;99397.94;;;4.37;62.29
36664;BME280;53333;51.976;20.144;2023-03-15T05:18:50;99399.63;;;4.40;62.10
36664;BME280;53333;51.976;20.144;2023-03-15T05:21:38;99404.16;;;4.36;62.20
36664;BME280;53333;51.976;20.144;2023-03-15T05:24:23;99407.41;;;4.44;61.97
36664;BME280;53333;51.976;20.144;2023-03-15T05:27:22;99408.88;;;4.28;62.34
36664;BME280;53333;51.976;20.144;2023-03-15T05:30:13;99423.16;;;4.22;62.28
36664;BME280;53333;51.976;20.144;2023-03-15T05:33:07;99425.94;;;4.17;62.51
36664;BME280;53333;51.976;20.144;2023-03-15T05:35:52;99434.13;;;4.10;62.58
36664;BME280;53333;51.976;20.144;2023-03-15T05:38:50;99431.63;;;4.05;62.69
36664;BME280;53333;51.976;20.144;2023-03-15T05:41:43;99434.31;;;4.04;62.79
36664;BME280;53333;51.976;20.144;2023-03-15T05:44:33;99443.00;;;4.09;62.81
36664;BME280;53333;51.976;20.144;2023-03-15T05:47:33;99452.59;;;4.11;62.61
36664;BME280;53333;51.976;20.144;2023-03-15T05:50:25;99449.84;;;4.14;62.61
36664;BME280;53333;51.976;20.144;2023-03-15T05:53:17;99450.78;;;4.13;62.79
36664;BME280;53333;51.976;20.144;2023-03-15T05:56:10;99456.00;;;4.15;62.83
36664;BME280;53333;51.976;20.144;2023-03-15T05:59:03;99448.03;;;4.16;62.86
36664;BME280;53333;51.976;20.144;2023-03-15T06:01:54;99466.28;;;4.23;62.65
36664;BME280;53333;51.976;20.144;2023-03-15T06:04:34;99473.06;;;4.31;62.59
36664;BME280;53333;51.976;20.144;2023-03-15T06:07:09;99472.16;;;4.32;62.57
36664;BME280;53333;51.976;20.144;2023-03-15T06:09:43;99482.78;;;4.31;62.41
36664;BME280;53333;51.976;20.144;2023-03-15T06:12:16;99481.97;;;4.29;62.42
36664;BME280;53333;51.976;20.144;2023-03-15T06:14:52;99491.72;;;4.27;62.63
36664;BME280;53333;51.976;20.144;2023-03-15T06:17:25;99488.25;;;4.26;62.40
36664;BME280;53333;51.976;20.144;2023-03-15T06:19:58;99493.41;;;4.29;62.36
36664;BME280;53333;51.976;20.144;2023-03-15T06:22:31;99497.78;;;4.30;62.47
36664;BME280;53333;51.976;20.144;2023-03-15T06:25:11;99505.56;;;4.35;62.48
36664;BME280;53333;51.976;20.144;2023-03-15T06:27:44;99523.97;;;4.38;62.19
36664;BME280;53333;51.976;20.144;2023-03-15T06:30:19;99519.44;;;4.42;62.15
36664;BME280;53333;51.976;20.144;2023-03-15T06:32:55;99522.03;;;4.43;62.02
36664;BME280;53333;51.976;20.144;2023-03-15T06:35:28;99516.53;;;4.49;62.05
36664;BME280;53333;51.976;20.144;2023-03-15T06:38:01;99517.34;;;4.51;61.84
36664;BME280;53333;51.976;20.144;2023-03-15T06:40:34;99521.78;;;4.51;61.56
36664;BME280;53333;51.976;20.144;2023-03-15T06:43:07;99530.84;;;4.44;61.48
36664;BME280;53333;51.976;20.144;2023-03-15T06:45:46;99530.94;;;4.41;61.48
36664;BME280;53333;51.976;20.144;2023-03-15T06:48:21;99537.09;;;4.41;61.55
36664;BME280;53333;51.976;20.144;2023-03-15T06:50:54;99536.94;;;4.46;61.53
36664;BME280;53333;51.976;20.144;2023-03-15T06:53:27;99537.69;;;4.49;61.38
36664;BME280;53333;51.976;20.144;2023-03-15T06:56:00;99540.94;;;4.58;61.10
36664;BME280;53333;51.976;20.144;2023-03-15T06:58:33;99550.31;;;4.68;61.05
36664;BME280;53333;51.976;20.144;2023-03-15T07:01:10;99561.50;;;4.76;60.91
36664;BME280;53333;51.976;20.144;2023-03-15T07:03:46;99567.22;;;4.89;60.52
36664;BME280;53333;51.976;20.144;2023-03-15T07:06:20;99565.00;;;5.02;60.58
36664;BME280;53333;51.976;20.144;2023-03-15T07:08:53;99570.13;;;5.06;60.48
36664;BME280;53333;51.976;20.144;2023-03-15T07:11:26;99577.06;;;5.11;60.18
36664;BME280;53333;51.976;20.144;2023-03-15T07:13:59;99575.88;;;5.19;59.99
36664;BME280;53333;51.976;20.144;2023-03-15T07:16:36;99570.34;;;5.25;59.97
36664;BME280;53333;51.976;20.144;2023-03-15T07:19:09;99581.53;;;5.34;59.84
36664;BME280;53333;51.976;20.144;2023-03-15T07:21:42;99589.19;;;5.41;59.50
36664;BME280;53333;51.976;20.144;2023-03-15T07:24:15;99590.00;;;5.43;59.28
36664;BME280;53333;51.976;20.144;2023-03-15T07:26:48;99587.22;;;5.46;59.05
36664;BME280;53333;51.976;20.144;2023-03-15T07:29:25;99588.91;;;5.49;58.99
36664;BME280;53333;51.976;20.144;2023-03-15T07:31:59;99602.16;;;5.49;58.79
36664;BME280;53333;51.976;20.144;2023-03-15T07:34:32;99609.28;;;5.47;58.85
36664;BME280;53333;51.976;20.144;2023-03-15T07:37:05;99610.22;;;5.46;58.71
36664;BME280;53333;51.976;20.144;2023-03-15T07:39:38;99617.34;;;5.44;58.72
36664;BME280;53333;51.976;20.144;2023-03-15T07:42:12;99618.44;;;5.38;58.78
36664;BME280;53333;51.976;20.144;2023-03-15T07:44:46;99625.47;;;5.39;58.80
36664;BME280;53333;51.976;20.144;2023-03-15T07:47:21;99635.94;;;5.42;58.59
36664;BME280;53333;51.976;20.144;2023-03-15T07:49:54;99637.69;;;5.43;58.61
36664;BME280;53333;51.976;20.144;2023-03-15T07:52:27;99647.41;;;5.43;58.42
36664;BME280;53333;51.976;20.144;2023-03-15T07:55:00;99659.72;;;5.44;58.47
36664;BME280;53333;51.976;20.144;2023-03-15T07:57:33;99670.31;;;5.44;58.45
36664;BME280;53333;51.976;20.144;2023-03-15T08:00:07;99678.25;;;5.44;58.20
36664;BME280;53333;51.976;20.144;2023-03-15T08:02:46;99695.16;;;5.41;58.22
36664;BME280;53333;51.976;20.144;2023-03-15T08:05:20;99688.91;;;5.42;57.91
36664;BME280;53333;51.976;20.144;2023-03-15T08:07:53;99696.66;;;5.49;57.97
36664;BME280;53333;51.976;20.144;2023-03-15T08:10:27;99713.09;;;5.58;57.75
36664;BME280;53333;51.976;20.144;2023-03-15T08:13:00;99713.09;;;5.58;57.60
36664;BME280;53333;51.976;20.144;2023-03-15T08:15:33;99725.53;;;5.56;57.60
36664;BME280;53333;51.976;20.144;2023-03-15T08:18:07;99725.38;;;5.61;57.43
36664;BME280;53333;51.976;20.144;2023-03-15T08:20:40;99729.75;;;5.62;57.26
36664;BME280;53333;51.976;20.144;2023-03-15T08:23:13;99732.63;;;5.56;57.17
36664;BME280;53333;51.976;20.144;2023-03-15T08:25:47;99729.28;;;5.51;57.26
36664;BME280;53333;51.976;20.144;2023-03-15T08:28:20;99737.34;;;5.48;57.17
36664;BME280;53333;51.976;20.144;2023-03-15T08:30:53;99738.22;;;5.46;57.36
36664;BME280;53333;51.976;20.144;2023-03-15T08:33:28;99737.44;;;5.44;57.30
36664;BME280;53333;51.976;20.144;2023-03-15T08:36:02;99739.13;;;5.45;57.40
36664;BME280;53333;51.976;20.144;2023-03-15T08:38:36;99739.03;;;5.49;57.03
36664;BME280;53333;51.976;20.144;2023-03-15T08:41:09;99743.13;;;5.59;56.96
36664;BME280;53333;51.976;20.144;2023-03-15T08:43:42;99758.81;;;5.65;56.84
36664;BME280;53333;51.976;20.144;2023-03-15T08:46:15;99763.94;;;5.70;56.75
36664;BME280;53333;51.976;20.144;2023-03-15T08:48:50;99761.69;;;5.84;56.72
36664;BME280;53333;51.976;20.144;2023-03-15T08:51:23;99755.06;;;6.21;56.09
36664;BME280;53333;51.976;20.144;2023-03-15T08:53:57;99751.47;;;6.46;55.88
36664;BME280;53333;51.976;20.144;2023-03-15T08:56:30;99753.38;;;6.66;55.33
36664;BME280;53333;51.976;20.144;2023-03-15T08:59:04;99759.84;;;6.81;55.10
36664;BME280;53333;51.976;20.144;2023-03-15T09:01:37;99756.72;;;6.93;54.64
36664;BME280;53333;51.976;20.144;2023-03-15T09:04:12;99757.03;;;7.07;54.34
36664;BME280;53333;51.976;20.144;2023-03-15T09:06:46;99767.75;;;7.26;54.05
36664;BME280;53333;51.976;20.144;2023-03-15T09:09:19;99770.34;;;7.71;53.51
36664;BME280;53333;51.976;20.144;2023-03-15T09:11:52;99770.69;;;7.84;53.05
36664;BME280;53333;51.976;20.144;2023-03-15T09:14:26;99775.09;;;7.83;52.82
36664;BME280;53333;51.976;20.144;2023-03-15T09:16:59;99788.72;;;7.75;53.06
36664;BME280;53333;51.976;20.144;2023-03-15T09:19:34;99785.03;;;7.79;52.91
36664;BME280;53333;51.976;20.144;2023-03-15T09:22:07;99782.88;;;7.88;52.62
36664;BME280;53333;51.976;20.144;2023-03-15T09:24:47;99788.22;;;7.88;52.43
36664;BME280;53333;51.976;20.144;2023-03-15T09:27:22;99786.38;;;7.69;52.34
36664;BME280;53333;51.976;20.144;2023-03-15T09:29:55;99797.94;;;7.46;52.36
36664;BME280;53333;51.976;20.144;2023-03-15T09:32:28;99789.34;;;7.61;52.03
36664;BME280;53333;51.976;20.144;2023-03-15T09:35:12;99795.88;;;8.35;50.93
36664;BME280;53333;51.976;20.144;2023-03-15T09:37:46;99793.44;;;8.70;49.87
36664;BME280;53333;51.976;20.144;2023-03-15T09:40:22;99789.41;;;9.88;47.97
36664;BME280;53333;51.976;20.144;2023-03-15T09:43:01;99794.94;;;10.69;46.41
36664;BME280;53333;51.976;20.144;2023-03-15T09:45:47;99790.41;;;11.80;44.59
36664;BME280;53333;51.976;20.144;2023-03-15T09:48:28;99789.44;;;12.98;42.71
36664;BME280;53333;51.976;20.144;2023-03-15T09:51:07;99793.81;;;13.13;41.95
36664;BME280;53333;51.976;20.144;2023-03-15T09:53:45;99779.31;;;12.74;42.25
36664;BME280;53333;51.976;20.144;2023-03-15T09:56:24;99783.88;;;13.28;41.38
36664;BME280;53333;51.976;20.144;2023-03-15T09:59:00;99783.34;;;14.16;40.65
36664;BME280;53333;51.976;20.144;2023-03-15T10:01:35;99784.97;;;14.19;40.05
36664;BME280;53333;51.976;20.144;2023-03-15T10:04:12;99790.78;;;14.12;39.44
36664;BME280;53333;51.976;20.144;2023-03-15T10:06:53;99790.53;;;15.17;37.81
36664;BME280;53333;51.976;20.144;2023-03-15T10:09:32;99784.44;;;15.39;37.10
36664;BME280;53333;51.976;20.144;2023-03-15T10:12:11;99779.97;;;16.67;35.18
36664;BME280;53333;51.976;20.144;2023-03-15T10:15:07;99779.78;;;18.53;33.67
36664;BME280;53333;51.976;20.144;2023-03-15T10:17:55;99773.06;;;20.17;30.86
36664;BME280;53333;51.976;20.144;2023-03-15T10:20:37;99767.81;;;21.64;28.37
36664;BME280;53333;51.976;20.144;2023-03-15T10:23:18;99784.50;;;21.69;28.56
36664;BME280;53333;51.976;20.144;2023-03-15T10:25:52;99794.78;;;22.01;28.10
36664;BME280;53333;51.976;20.144;2023-03-15T10:28:28;99795.16;;;22.51;26.49
36664;BME280;53333;51.976;20.144;2023-03-15T10:31:11;99792.47;;;22.59;25.90
36664;BME280;53333;51.976;20.144;2023-03-15T10:34:00;99800.03;;;22.73;25.41
36664;BME280;53333;51.976;20.144;2023-03-15T10:36:33;99793.88;;;21.92;25.67
36664;BME280;53333;51.976;20.144;2023-03-15T10:39:10;99796.19;;;21.69;25.36
36664;BME280;53333;51.976;20.144;2023-03-15T10:41:44;99792.06;;;22.45;24.57
36664;BME280;53333;51.976;20.144;2023-03-15T10:44:19;99788.56;;;22.96;24.05
36664;BME280;53333;51.976;20.144;2023-03-15T10:47:02;99795.06;;;22.34;24.65
36664;BME280;53333;51.976;20.144;2023-03-15T10:49:57;99796.75;;;21.55;25.06
36664;BME280;53333;51.976;20.144;2023-03-15T10:52:33;99796.84;;;20.32;25.78
36664;BME280;53333;51.976;20.144;2023-03-15T10:55:11;99800.78;;;19.11;26.98
36664;BME280;53333;51.976;20.144;2023-03-15T10:57:51;99798.00;;;18.09;28.13
36664;BME280;53333;51.976;20.144;2023-03-15T11:00:27;99803.59;;;17.31;29.17
36664;BME280;53333;51.976;20.144;2023-03-15T11:03:03;99798.25;;;16.63;30.15
36664;BME280;53333;51.976;20.144;2023-03-15T11:05:39;99789.94;;;15.97;30.36
36664;BME280;53333;51.976;20.144;2023-03-15T11:08:15;99798.16;;;15.47;31.54
36664;BME280;53333;51.976;20.144;2023-03-15T11:10:56;99794.75;;;14.84;31.88
36664;BME280;53333;51.976;20.144;2023-03-15T11:13:32;99802.22;;;14.92;32.16
36664;BME280;53333;51.976;20.144;2023-03-15T11:16:07;99795.88;;;15.30;32.27
36664;BME280;53333;51.976;20.144;2023-03-15T11:18:53;99786.97;;;16.69;31.03
36664;BME280;53333;51.976;20.144;2023-03-15T11:21:30;99780.22;;;18.06;29.93
36664;BME280;53333;51.976;20.144;2023-03-15T11:24:05;99781.13;;;19.09;28.07
36664;BME280;53333;51.976;20.144;2023-03-15T11:26:41;99778.59;;;18.77;27.80
36664;BME280;53333;51.976;20.144;2023-03-15T11:29:24;99775.31;;;17.79;28.48
36664;BME280;53333;51.976;20.144;2023-03-15T11:31:59;99787.44;;;17.09;29.18
36664;BME280;53333;51.976;20.144;2023-03-15T11:34:43;99780.09;;;16.31;29.64
36664;BME280;53333;51.976;20.144;2023-03-15T11:37:20;99786.31;;;15.50;30.96
36664;BME280;53333;51.976;20.144;2023-03-15T11:39:59;99792.28;;;14.81;31.68
36664;BME280;53333;51.976;20.144;2023-03-15T11:42:48;99786.56;;;14.08;33.01
36664;BME280;53333;51.976;20.144;2023-03-15T11:45:28;99787.94;;;13.48;33.74
36664;BME280;53333;51.976;20.144;2023-03-15T11:48:26;99797.72;;;13.07;34.36
36664;BME280;53333;51.976;20.144;2023-03-15T11:51:01;99797.31;;;12.86;34.55
36664;BME280;53333;51.976;20.144;2023-03-15T11:53:37;99793.97;;;12.68;35.02
36664;BME280;53333;51.976;20.144;2023-03-15T11:56:23;99795.59;;;12.71;34.72
36664;BME280;53333;51.976;20.144;2023-03-15T11:59:05;99803.44;;;12.74;34.80
36664;BME280;53333;51.976;20.144;2023-03-15T12:01:42;99790.91;;;12.60;35.00
36664;BME280;53333;51.976;20.144;2023-03-15T12:04:40;99800.47;;;12.35;35.55
36664;BME280;53333;51.976;20.144;2023-03-15T12:07:35;99809.34;;;12.22;35.50
36664;BME280;53333;51.976;20.144;2023-03-15T12:10:37;99808.19;;;11.97;35.79
36664;BME280;53333;51.976;20.144;2023-03-15T12:13:18;99814.63;;;11.62;36.21
36664;BME280;53333;51.976;20.144;2023-03-15T12:15:56;99817.41;;;11.45;36.53
36664;BME280;53333;51.976;20.144;2023-03-15T12:18:40;99816.41;;;11.16;36.76
36664;BME280;53333;51.976;20.144;2023-03-15T12:21:18;99819.66;;;11.37;36.90
36664;BME280;53333;51.976;20.144;2023-03-15T12:23:59;99822.06;;;12.18;35.91
36664;BME280;53333;51.976;20.144;2023-03-15T12:26:40;99824.38;;;12.24;35.81
36664;BME280;53333;51.976;20.144;2023-03-15T12:29:17;99821.06;;;12.35;35.56
36664;BME280;53333;51.976;20.144;2023-03-15T12:32:03;99820.19;;;12.49;35.52
36664;BME280;53333;51.976;20.144;2023-03-15T12:34:46;99822.09;;;12.76;35.03
36664;BME280;53333;51.976;20.144;2023-03-15T12:37:22;99820.34;;;12.89;34.94
36664;BME280;53333;51.976;20.144;2023-03-15T12:43:34;99822.59;;;13.09;35.02
36664;BME280;53333;51.976;20.144;2023-03-15T12:49:36;99831.50;;;12.54;35.14
36664;BME280;53333;51.976;20.144;2023-03-15T12:52:27;99834.97;;;12.11;35.84
36664;BME280;53333;51.976;20.144;2023-03-15T12:55:12;99842.41;;;11.76;36.35
36664;BME280;53333;51.976;20.144;2023-03-15T12:57:48;99844.66;;;11.52;36.57
36664;BME280;53333;51.976;20.144;2023-03-15T13:00:24;99854.09;;;11.27;36.72
36664;BME280;53333;51.976;20.144;2023-03-15T13:03:02;99859.25;;;10.98;37.38
36664;BME280;53333;51.976;20.144;2023-03-15T13:05:49;99855.31;;;10.72;37.92
36664;BME280;53333;51.976;20.144;2023-03-15T13:08:40;99872.59;;;10.49;38.28
36664;BME280;53333;51.976;20.144;2023-03-15T13:11:20;85868.97;;;10.36;38.58
36664;BME280;53333;51.976;20.144;2023-03-15T13:14:04;99864.59;;;10.49;38.66
36664;BME280;53333;51.976;20.144;2023-03-15T13:16:43;99868.69;;;10.72;38.82
36664;BME280;53333;51.976;20.144;2023-03-15T13:19:20;99878.47;;;10.89;38.91
36664;BME280;53333;51.976;20.144;2023-03-15T13:22:04;99886.41;;;10.90;38.94
36664;BME280;53333;51.976;20.144;2023-03-15T13:24:49;99880.69;;;10.81;38.55
36664;BME280;53333;51.976;20.144;2023-03-15T13:27:37;99885.84;;;10.68;38.61
36664;BME280;53333;51.976;20.144;2023-03-15T13:30:31;99892.44;;;10.61;38.62
36664;BME280;53333;51.976;20.144;2023-03-15T13:33:11;99886.31;;;10.59;38.78
36664;BME280;53333;51.976;20.144;2023-03-15T13:35:52;99893.97;;;10.49;38.62
36664;BME280;53333;51.976;20.144;2023-03-15T13:38:30;99892.81;;;10.37;38.78
36664;BME280;53333;51.976;20.144;2023-03-15T13:41:05;99891.19;;;10.15;38.55
36664;BME280;53333;51.976;20.144;2023-03-15T13:43:48;99895.19;;;9.89;38.53
36664;BME280;53333;51.976;20.144;2023-03-15T13:46:23;99901.97;;;9.60;38.92
36664;BME280;53333;51.976;20.144;2023-03-15T13:48:59;99910.72;;;9.44;39.39
36664;BME280;53333;51.976;20.144;2023-03-15T13:51:34;99915.03;;;9.47;39.89
36664;BME280;53333;51.976;20.144;2023-03-15T13:54:12;99919.56;;;9.45;39.92
36664;BME280;53333;51.976;20.144;2023-03-15T13:56:57;99921.13;;;9.49;40.17
36664;BME280;53333;51.976;20.144;2023-03-15T13:59:40;99911.69;;;9.61;39.84
36664;BME280;53333;51.976;20.144;2023-03-15T14:02:17;99923.59;;;9.54;39.97
36664;BME280;53333;51.976;20.144;2023-03-15T14:04:55;99916.69;;;9.50;40.21